KCGI/CGI METAR and TAF weather

Enter ICAO airport designator
Station Type Date Time Source
KCGI METAR 2018/01/22 11:53 UTC NOAA

KCGI 221153Z AUTO 18017G29KT 8SM -RA BKN011 BKN023 OVC042 13/11 A2972 RMK AO2 PK WND 18029/1149 SLP065 P0012 60042 70042 T01280111 10150 20117 51027


Station Type Date Time Source
KCGI Decoded METAR 2018/01/22 11:53 UTC NOAA

CAPE GIRARDEAU REGIONAL, MO, United States (KCGI) 37-14N 089-35W 102M
Jan 22, 2018 - 06:53 AM EST / 2018.01.22 1153 UTC
Wind: from the S (180 degrees) at 20 MPH (17 KT) gusting to 33 MPH (29 KT):0
Visibility: 8 mile(s):0
Sky conditions: overcast
Weather: light rain
Precipitation last hour: 0.12 inches
Temperature: 55.0 F (12.8 C)
Dew Point: 52.0 F (11.1 C)
Relative Humidity: 89%
Pressure (altimeter): 29.72 in. Hg (1006 hPa)
Pressure tendency: 0.08 inches (2.7 hPa) higher than three hours ago
ob: KCGI 221153Z AUTO 18017G29KT 8SM -RA BKN011 BKN023 OVC042 13/11 A2972 RMK AO2 PK WND 18029/1149 SLP065 P0012 60042 70042 T01280111 10150 20117 51027
cycle: 12

Station Type Date Time Source
KCGI TAF 2018/01/22 12:30 UTC NOAA

TAF KCGI 221128Z 2212/2312 18017G30KT 5SM -SHRA SCT015 BKN030
FM221400 21020G32KT P6SM SCT100
FM230000 23015G24KT P6SM BKN060
FM230800 25012G22KT P6SM BKN030


Example: see airport list